Time;durP1;ratioP1;P1;durP2;ratioP2;P2;SDS_P1;SDS_P2;PMS_P1;PMS_P2;Temp;Humidity;BMP_temperature;BMP_pressure;BME280_temperature;BME280_humidity;BME280_pressure;Samples;Min_cycle;Max_cycle;Signal;HPM_P1;HPM_P2
2022/02/11 00:05:26;;;;;;;6.40;2.20;;;;;;;3.80;89.11;101209.96;105378;1286;61828;-83
2022/02/11 00:07:58;;;;;;;;;;;;;;;;;;;;;
2022/02/11 00:10:55;;;;;;;;;;;;;;;;;;;;;
2022/02/11 00:13:58;;;;;;;;;;;;;;;;;;;;;
2022/02/11 00:16:49;;;;;;;7.20;2.40;;;;;;;3.71;89.01;101206.00;106103;1280;72743;-82
2022/02/11 00:19:36;;;;;;;10.40;2.70;;;;;;;3.67;88.90;101203.05;106048;1279;62408;-83
2022/02/11 00:22:32;;;;;;;7.10;3.10;;;;;;;3.66;88.94;101202.44;106084;1279;62159;-84
2022/02/11 00:25:46;;;;;;;6.60;2.60;;;;;;;3.64;88.86;101204.38;106025;1280;73063;-83
2022/02/11 00:35:03;;;;;;;;;;;;;;;;;;;;;
2022/02/11 00:37:51;;;;;;;7.00;2.20;;;;;;;3.57;89.15;101187.41;106319;1270;61450;-83
2022/02/11 00:41:35;;;;;;;5.80;3.20;;;;;;;3.57;88.86;101185.02;106384;1273;72530;-83
2022/02/11 00:47:24;;;;;;;10.00;2.30;;;;;;;3.55;88.89;101185.85;106524;1271;74409;-83
2022/02/11 01:04:31;;;;;;;3.90;1.20;;;;;;;3.46;88.48;101175.32;106589;1271;61433;-83
2022/02/11 01:07:24;;;;;;;13.10;2.50;;;;;;;3.44;88.39;101184.73;106619;1271;60538;-83
2022/02/11 01:10:46;;;;;;;6.20;1.80;;;;;;;3.42;88.37;101190.98;106706;1268;74710;-83
2022/02/11 01:13:56;;;;;;;4.70;1.50;;;;;;;3.42;88.65;101189.98;106608;1271;69384;-84
2022/02/11 01:17:07;;;;;;;8.10;1.80;;;;;;;3.41;88.02;101193.53;106405;1271;75947;-83
2022/02/11 01:19:57;;;;;;;6.00;1.90;;;;;;;3.41;88.06;101197.20;106533;1271;61480;-84
2022/02/11 01:25:56;;;;;;;11.20;2.10;;;;;;;3.40;87.62;101190.31;106450;1271;74354;-84
2022/02/11 01:28:35;;;;;;;4.10;1.40;;;;;;;3.41;87.53;101190.73;106401;1271;71366;-84
2022/02/11 01:31:59;;;;;;;6.30;1.70;;;;;;;3.41;87.38;101181.25;106269;1271;73329;-83
2022/02/11 01:34:44;;;;;;;2.60;1.50;;;;;;;3.42;86.74;101183.85;106419;1271;62644;-83
2022/02/11 01:53:30;;;;;;;5.60;1.80;;;;;;;3.37;87.04;101162.88;105750;1279;60470;-83
2022/02/11 01:56:16;;;;;;;6.50;1.50;;;;;;;3.37;87.08;101169.58;106451;1271;75916;-83
2022/02/11 01:59:28;;;;;;;4.30;1.60;;;;;;;3.36;87.10;101171.19;106595;1271;71341;-83
2022/02/11 02:18:27;;;;;;;5.70;1.80;;;;;;;3.30;87.36;101150.14;106186;1277;74283;-84
2022/02/11 02:24:23;;;;;;;6.90;2.40;;;;;;;3.22;87.66;101136.97;106497;1271;60350;-85
2022/02/11 02:27:46;;;;;;;5.70;1.80;;;;;;;3.21;87.85;101135.40;106410;1273;75287;-84
2022/02/11 02:32:03;;;;;;;6.10;2.20;;;;;;;3.15;88.10;101128.36;106546;1271;71373;-84
2022/02/11 02:57:14;;;;;;;6.30;2.40;;;;;;;2.98;89.37;101110.42;106335;1271;61645;-83
2022/02/11 03:00:56;;;;;;;7.10;3.20;;;;;;;3.00;89.38;101108.70;106573;1271;73548;-83
2022/02/11 03:50:09;;;;;;;6.90;4.60;;;;;;;2.61;93.09;101106.71;106535;1271;73449;-83
2022/02/11 03:57:27;;;;;;;13.30;4.80;;;;;;;2.56;93.28;101099.21;106055;1279;72263;-84
2022/02/11 04:22:21;;;;;;;11.10;4.00;;;;;;;2.52;90.73;101098.11;106638;1271;73099;-84
2022/02/11 04:56:20;;;;;;;;;;;;;;;;;;;;;
2022/02/11 04:59:49;;;;;;;;;;;;;;;;;;;;;
2022/02/11 05:03:02;;;;;;;;;;;;;;;;;;;;;
2022/02/11 05:08:58;;;;;;;12.80;6.20;;;;;;;1.42;95.03;101076.10;106092;1279;75298;-83
2022/02/11 05:11:49;;;;;;;14.00;7.80;;;;;;;1.40;94.98;101070.84;106314;1274;74036;-83
2022/02/11 05:14:44;;;;;;;13.40;7.90;;;;;;;1.39;95.40;101071.27;106371;1273;73777;-83
2022/02/11 05:17:41;;;;;;;;;;;;;;;;;;;;;
2022/02/11 05:20:54;;;;;;;17.30;7.00;;;;;;;1.37;95.51;101070.86;106433;1273;60862;-83
2022/02/11 05:24:03;;;;;;;;;;;;;;;;;;;;;
2022/02/11 05:27:31;;;;;;;13.90;5.60;;;;;;;1.37;95.93;101062.89;106230;1273;71017;-83
2022/02/11 05:30:34;;;;;;;13.70;7.90;;;;;;;1.39;95.91;101059.98;106632;1273;72579;-83
2022/02/11 05:33:29;;;;;;;12.30;4.70;;;;;;;1.38;96.04;101057.77;106682;1273;62407;-82
2022/02/11 05:36:21;;;;;;;14.80;7.80;;;;;;;1.43;95.94;101060.73;106307;1275;60729;-83
2022/02/11 05:39:19;;;;;;;;;;;;;;;;;;;;;
2022/02/11 05:42:28;;;;;;;14.70;8.40;;;;;;;1.52;96.11;101062.89;106239;1274;71763;-84
2022/02/11 05:45:03;;;;;;;20.10;9.60;;;;;;;1.58;96.15;101058.63;106301;1274;72762;-84
2022/02/11 05:47:38;;;;;;;17.90;8.70;;;;;;;1.65;95.89;101056.95;106147;1275;61480;-84
2022/02/11 05:50:17;;;;;;;17.40;8.20;;;;;;;1.71;95.73;101059.16;106258;1276;61562;-84
2022/02/11 05:53:27;;;;;;;;;;;;;;;;;;;;;
2022/02/11 05:56:25;;;;;;;;;;;;;;;;;;;;;
2022/02/11 05:59:18;;;;;;;11.90;6.70;;;;;;;1.87;95.34;101051.73;106297;1273;71662;-83
2022/02/11 06:02:25;;;;;;;15.30;7.60;;;;;;;1.93;94.99;101051.08;106356;1273;62436;-82
2022/02/11 06:05:21;;;;;;;;;;;;;;;;;;;;;
2022/02/11 06:08:21;;;;;;;17.80;7.40;;;;;;;2.06;94.83;101052.08;106380;1273;75315;-82
2022/02/11 06:11:32;;;;;;;21.00;9.20;;;;;;;2.12;94.90;101052.04;106172;1274;71389;-83
2022/02/11 06:14:11;;;;;;;20.50;9.60;;;;;;;2.15;94.82;101047.58;106193;1275;72686;-83
2022/02/11 06:16:55;;;;;;;;;;;;;;;;;;;;;
2022/02/11 06:19:47;;;;;;;15.70;7.60;;;;;;;2.19;95.21;101041.17;106378;1274;60478;-82
2022/02/11 06:22:44;;;;;;;15.60;8.80;;;;;;;2.20;95.68;101045.79;106596;1273;75195;-82
2022/02/11 06:25:12;;;;;;;19.30;9.20;;;;;;;2.22;96.18;101038.90;106351;1273;71472;-81
2022/02/11 06:27:43;;;;;;;16.20;8.50;;;;;;;2.22;96.62;101045.70;106477;1276;72877;-81
2022/02/11 06:31:01;;;;;;;14.50;6.20;;;;;;;2.21;97.15;101046.46;106532;1273;61512;-82
2022/02/11 06:34:14;;;;;;;;;;;;;;;;;;;;;
2022/02/11 06:37:41;;;;;;;;;;;;;;;;;;;;;
2022/02/11 06:41:12;;;;;;;28.60;11.20;;;;;;;2.11;99.30;101045.13;106401;1273;68960;-84
2022/02/11 06:46:54;;;;;;;21.10;11.50;;;;;;;2.09;99.96;101047.73;108227;1266;159210;-83
2022/02/11 06:49:21;;;;;;;22.20;11.00;;;;;;;2.11;100.00;101055.93;108383;1276;60850;-83
2022/02/11 06:51:49;;;;;;;18.20;11.80;;;;;;;2.15;100.00;101052.50;108407;1276;72969;-84
2022/02/11 06:54:15;;;;;;;16.20;9.80;;;;;;;2.19;100.00;101060.91;108356;1276;71534;-84
2022/02/11 06:56:42;;;;;;;18.70;11.30;;;;;;;2.23;99.96;101058.35;108243;1276;73933;-84
2022/02/11 06:59:08;;;;;;;16.40;9.10;;;;;;;2.27;99.92;101054.09;108338;1276;61690;-81
2022/02/11 07:01:35;;;;;;;18.10;9.60;;;;;;;2.34;99.95;101057.17;108216;1275;58283;-80
2022/02/11 07:04:11;;;;;;;19.80;9.50;;;;;;;2.42;99.55;101072.52;108217;1277;75018;-81
2022/02/11 07:06:38;;;;;;;13.20;8.20;;;;;;;2.47;99.22;101073.70;108348;1276;71444;-80
2022/02/11 07:09:05;;;;;;;17.80;9.00;;;;;;;2.52;98.61;101073.69;108283;1276;73335;-80
2022/02/11 07:11:31;;;;;;;9.20;6.30;;;;;;;2.58;98.29;101076.36;108357;1276;61506;-80
2022/02/11 07:13:58;;;;;;;10.70;5.50;;;;;;;2.63;98.01;101081.62;108225;1276;58159;-82
2022/02/11 07:16:24;;;;;;;14.50;6.20;;;;;;;2.65;98.27;101085.10;108122;1277;58296;-79
2022/02/11 07:18:51;;;;;;;6.30;3.60;;;;;;;2.71;98.43;101081.57;108348;1276;58531;-82
2022/02/11 07:21:17;;;;;;;17.90;8.00;;;;;;;2.72;97.86;101075.38;108215;1277;58460;-82
2022/02/11 07:23:47;;;;;;;10.30;6.80;;;;;;;2.72;97.46;101077.13;108199;1277;58197;-81
2022/02/11 07:26:13;;;;;;;12.10;6.70;;;;;;;2.71;97.59;101072.27;108220;1277;60310;-80
2022/02/11 07:28:42;;;;;;;11.10;7.00;;;;;;;2.71;97.62;101077.86;108291;1276;73694;-81
2022/02/11 07:31:08;;;;;;;11.00;7.30;;;;;;;2.71;98.10;101084.66;108085;1277;72510;-81
2022/02/11 07:33:35;;;;;;;10.50;6.00;;;;;;;2.71;97.84;101092.74;108074;1276;71924;-82
2022/02/11 07:36:02;;;;;;;8.50;6.60;;;;;;;2.72;98.02;101081.14;107917;1277;58289;-83
2022/02/11 07:38:30;;;;;;;13.20;7.50;;;;;;;2.72;97.94;101095.29;108198;1276;61658;-82
2022/02/11 07:40:57;;;;;;;8.80;6.10;;;;;;;2.72;98.18;101093.52;108284;1276;75606;-81
2022/02/11 07:43:24;;;;;;;14.10;7.60;;;;;;;2.72;98.58;101093.85;108308;1276;58344;-82
2022/02/11 07:46:07;;;;;;;13.00;7.60;;;;;;;2.71;98.91;101089.72;108063;1277;74346;-82
2022/02/11 07:48:33;;;;;;;11.20;7.20;;;;;;;2.70;99.02;101100.98;108007;1276;61258;-79
2022/02/11 07:51:01;;;;;;;7.30;4.40;;;;;;;2.69;99.53;101096.02;108121;1276;61651;-79
2022/02/11 07:53:28;;;;;;;7.20;5.50;;;;;;;2.67;99.72;101097.03;108092;1277;74037;-79
2022/02/11 07:55:54;;;;;;;7.10;5.60;;;;;;;2.66;99.78;101100.91;108139;1277;73182;-79
2022/02/11 07:58:24;;;;;;;7.50;5.70;;;;;;;2.67;99.91;101107.33;108051;1277;72909;-81
2022/02/11 08:00:53;;;;;;;10.70;5.00;;;;;;;2.67;99.68;101103.45;108285;1276;60718;-78
2022/02/11 08:03:20;;;;;;;7.20;4.60;;;;;;;2.69;99.75;101108.59;108374;1276;60514;-80
2022/02/11 08:05:46;;;;;;;8.00;5.20;;;;;;;2.72;99.89;101107.30;108304;1276;74278;-79
2022/02/11 08:08:13;;;;;;;7.80;4.80;;;;;;;2.75;99.61;101108.14;108261;1276;72432;-79
2022/02/11 08:10:39;;;;;;;9.70;5.20;;;;;;;2.78;99.54;101108.64;108178;1277;58798;-78
2022/02/11 08:13:06;;;;;;;7.30;4.40;;;;;;;2.80;99.42;101116.46;108221;1277;58456;-81
2022/02/11 08:15:33;;;;;;;7.20;4.30;;;;;;;2.85;99.17;101112.95;108134;1276;61667;-78
2022/02/11 08:17:59;;;;;;;7.40;3.50;;;;;;;2.92;98.77;101108.84;108219;1277;75283;-79
2022/02/11 08:20:26;;;;;;;8.50;4.90;;;;;;;2.97;98.46;101109.09;108371;1276;72346;-79
2022/02/11 08:22:52;;;;;;;6.70;3.60;;;;;;;3.04;98.41;101108.80;108367;1276;72943;-79
2022/02/11 08:25:19;;;;;;;5.60;3.40;;;;;;;3.08;98.01;101124.88;108244;1278;58638;-83
2022/02/11 08:27:47;;;;;;;10.30;4.30;;;;;;;3.13;97.80;101115.62;108323;1276;61432;-82
2022/02/11 08:30:34;;;;;;;3.00;1.90;;;;;;;3.21;97.45;101120.42;108293;1276;76877;-81
2022/02/11 08:33:00;;;;;;;3.90;2.00;;;;;;;3.29;97.45;101118.64;108227;1276;71343;-82
2022/02/11 08:35:27;;;;;;;5.50;1.80;;;;;;;3.34;96.94;101116.62;108071;1277;74416;-81
2022/02/11 08:37:54;;;;;;;3.20;2.10;;;;;;;3.41;96.69;101124.15;108073;1278;62455;-79
2022/02/11 08:40:20;;;;;;;3.80;1.80;;;;;;;3.48;96.31;101119.02;108207;1276;62069;-79
2022/02/11 08:42:48;;;;;;;3.00;1.50;;;;;;;3.53;96.08;101121.24;108278;1277;58376;-79
2022/02/11 08:45:15;;;;;;;2.80;1.10;;;;;;;3.59;95.97;101121.48;108078;1277;71292;-82
2022/02/11 08:47:41;;;;;;;4.50;1.30;;;;;;;3.63;95.00;101124.30;108159;1277;74231;-79
2022/02/11 08:50:14;;;;;;;2.30;1.20;;;;;;;3.67;94.18;101136.46;108039;1278;62426;-83
2022/02/11 08:52:40;;;;;;;4.10;1.60;;;;;;;3.73;94.08;101134.27;108387;1276;61173;-82
2022/02/11 08:55:08;;;;;;;2.30;1.00;;;;;;;3.77;94.03;101130.41;108226;1278;75186;-79
2022/02/11 08:57:37;;;;;;;1.80;0.80;;;;;;;3.82;94.38;101138.47;108392;1277;72715;-81
2022/02/11 09:00:05;;;;;;;2.10;1.10;;;;;;;3.80;95.15;101131.58;108067;1278;74927;-82
2022/02/11 09:02:31;;;;;;;2.50;1.10;;;;;;;3.77;95.25;101139.38;108150;1277;61581;-82
2022/02/11 09:04:58;;;;;;;3.60;1.00;;;;;;;3.75;95.77;101138.45;108280;1277;58263;-82
2022/02/11 09:07:24;;;;;;;2.30;1.20;;;;;;;3.73;95.76;101153.71;108052;1277;363636;-85
2022/02/11 09:09:51;;;;;;;3.30;1.00;;;;;;;3.63;95.94;101169.50;108058;1277;72427;-82
2022/02/11 09:12:17;;;;;;;4.80;1.50;;;;;;;3.55;96.79;101157.85;108276;1277;58317;-82
2022/02/11 09:14:44;;;;;;;4.50;1.20;;;;;;;3.49;97.89;101156.58;108368;1277;58468;-83
2022/02/11 09:17:10;;;;;;;3.90;1.30;;;;;;;3.47;98.72;101158.98;108327;1277;58232;-81
2022/02/11 09:19:36;;;;;;;2.30;1.00;;;;;;;3.46;98.88;101157.70;108266;1277;58434;-78
2022/02/11 09:22:03;;;;;;;3.80;1.20;;;;;;;3.44;99.32;101159.95;108344;1277;59571;-78
2022/02/11 09:24:30;;;;;;;1.80;0.90;;;;;;;3.46;99.45;101164.84;108117;1277;73165;-78
2022/02/11 09:26:56;;;;;;;2.90;0.80;;;;;;;3.51;99.56;101167.63;108272;1277;58200;-79
2022/02/11 09:29:23;;;;;;;3.20;0.90;;;;;;;3.55;98.44;101168.01;108301;1276;58294;-78
2022/02/11 09:31:50;;;;;;;4.10;0.90;;;;;;;3.56;98.85;101169.45;108271;1277;58657;-79
2022/02/11 09:34:16;;;;;;;5.80;0.90;;;;;;;3.53;98.91;101169.38;108305;1277;71435;-78
2022/02/11 09:36:43;;;;;;;6.70;1.40;;;;;;;3.51;99.87;101175.97;108377;1277;73807;-78
2022/02/11 09:39:11;;;;;;;3.50;0.90;;;;;;;3.47;99.98;101190.98;108339;1276;62428;-78
2022/02/11 09:41:38;;;;;;;1.70;0.80;;;;;;;3.40;99.99;101190.59;108398;1277;61790;-78
2022/02/11 09:44:06;;;;;;;2.90;0.80;;;;;;;3.35;100.00;101186.84;108371;1278;75192;-82
2022/02/11 09:46:37;;;;;;;2.60;0.50;;;;;;;3.30;100.00;101191.46;108364;1276;71130;-79
2022/02/11 09:49:02;;;;;;;1.50;0.50;;;;;;;3.24;100.00;101208.44;108195;1277;71634;-81
2022/02/11 09:51:28;;;;;;;2.40;0.50;;;;;;;3.20;100.00;101199.88;108416;1277;58338;-81
2022/02/11 09:53:54;;;;;;;2.10;1.00;;;;;;;3.15;100.00;101203.00;108282;1277;58261;-84
2022/02/11 09:56:21;;;;;;;4.10;0.60;;;;;;;3.12;100.00;101210.89;108109;1277;58329;-82
2022/02/11 09:59:04;;;;;;;7.70;0.50;;;;;;;3.12;100.00;101210.40;108191;1277;71379;-82
2022/02/11 10:01:31;;;;;;;4.70;0.60;;;;;;;3.16;100.00;101216.44;108249;1277;73125;-83
2022/02/11 10:04:10;;;;;;;1.30;0.50;;;;;;;3.20;100.00;101228.17;108170;1277;58222;-83
2022/02/11 10:06:37;;;;;;;2.60;0.60;;;;;;;3.24;100.00;101229.94;108073;1278;60580;-78
2022/02/11 10:09:07;;;;;;;1.30;0.50;;;;;;;3.27;100.00;101233.91;108192;1277;73038;-79
2022/02/11 10:11:34;;;;;;;3.20;0.80;;;;;;;3.29;100.00;101242.52;108248;1277;71514;-79
2022/02/11 10:14:19;;;;;;;1.40;0.60;;;;;;;3.33;100.00;101244.88;108375;1277;71974;-79
2022/02/11 10:16:54;;;;;;;0.70;0.40;;;;;;;3.35;100.00;101250.11;108308;1277;62603;-82
2022/02/11 10:19:36;;;;;;;2.90;0.30;;;;;;;3.38;100.00;101258.27;108396;1277;61658;-79
2022/02/11 10:22:07;;;;;;;2.60;0.60;;;;;;;3.38;100.00;101262.33;108346;1277;75156;-79
2022/02/11 10:24:33;;;;;;;2.60;0.40;;;;;;;3.38;100.00;101265.61;108332;1277;71389;-81
2022/02/11 10:27:00;;;;;;;2.00;0.70;;;;;;;3.37;100.00;101273.19;108386;1276;73047;-82
2022/02/11 10:29:39;;;;;;;1.20;0.60;;;;;;;3.39;100.00;101275.90;108396;1277;58381;-79
2022/02/11 10:32:06;;;;;;;1.10;0.50;;;;;;;3.41;100.00;101276.94;108061;1277;62198;-80
2022/02/11 10:34:32;;;;;;;2.00;0.50;;;;;;;3.45;100.00;101285.07;108311;1277;74609;-80
2022/02/11 10:37:07;;;;;;;1.10;0.30;;;;;;;3.50;100.00;101294.65;108141;1277;72752;-82
2022/02/11 10:39:36;;;;;;;1.40;0.40;;;;;;;3.61;100.00;101294.13;107859;1277;73178;-81
2022/02/11 10:42:08;;;;;;;0.80;0.30;;;;;;;3.75;100.00;101305.58;108379;1276;62433;-82
2022/02/11 10:44:38;;;;;;;1.30;0.40;;;;;;;3.77;100.00;101308.02;108376;1276;60634;-79
2022/02/11 10:47:12;;;;;;;1.30;0.40;;;;;;;3.75;100.00;101314.27;107877;1277;75139;-82
2022/02/11 10:49:48;;;;;;;3.90;0.50;;;;;;;3.69;100.00;101326.40;108367;1277;71409;-82
2022/02/11 10:52:17;;;;;;;2.30;0.40;;;;;;;3.64;100.00;101332.02;108375;1276;72106;-81
2022/02/11 10:54:56;;;;;;;1.30;0.40;;;;;;;3.61;100.00;101327.58;108063;1277;62496;-81
2022/02/11 10:57:31;;;;;;;0.70;0.30;;;;;;;3.57;100.00;101331.70;108306;1277;60338;-80
2022/02/11 11:00:00;;;;;;;2.70;0.80;;;;;;;3.54;100.00;101345.73;108065;1277;74285;-80
2022/02/11 11:02:30;;;;;;;1.50;0.40;;;;;;;3.52;100.00;101341.14;108133;1277;71503;-81
2022/02/11 11:04:57;;;;;;;5.60;0.90;;;;;;;3.55;100.00;101346.76;108309;1277;73093;-83
2022/02/11 11:07:26;;;;;;;3.20;0.80;;;;;;;3.62;100.00;101344.63;108356;1277;58323;-82
2022/02/11 11:10:13;;;;;;;2.80;0.60;;;;;;;3.69;100.00;101353.93;108139;1277;62526;-80
2022/02/11 11:12:53;;;;;;;4.60;0.90;;;;;;;3.74;100.00;101355.86;108385;1276;74210;-80
2022/02/11 11:15:20;;;;;;;2.10;0.70;;;;;;;3.76;100.00;101356.23;108269;1277;72509;-81
2022/02/11 11:17:49;;;;;;;2.30;0.50;;;;;;;3.78;100.00;101365.66;108389;1277;74136;-80
2022/02/11 11:20:22;;;;;;;1.90;0.30;;;;;;;3.81;100.00;101362.67;108309;1277;62769;-80
2022/02/11 11:22:56;;;;;;;0.50;0.30;;;;;;;3.83;100.00;101377.73;108098;1277;60713;-81
2022/02/11 11:25:23;;;;;;;4.40;0.70;;;;;;;3.81;100.00;101382.96;108315;1276;75270;-79
2022/02/11 11:27:54;;;;;;;1.70;0.80;;;;;;;3.81;100.00;101386.25;108146;1277;72836;-80
2022/02/11 11:30:28;;;;;;;1.50;0.70;;;;;;;3.81;100.00;101388.04;108086;1277;75452;-80
2022/02/11 11:33:04;;;;;;;2.20;0.60;;;;;;;3.80;100.00;101398.00;108167;1277;62485;-81
2022/02/11 11:35:35;;;;;;;6.40;1.30;;;;;;;3.80;100.00;101400.54;108428;1276;60700;-81
2022/02/11 11:38:18;;;;;;;3.80;1.40;;;;;;;3.81;100.00;101412.20;108051;1277;74163;-81
2022/02/11 11:40:58;;;;;;;1.90;0.90;;;;;;;3.84;100.00;101419.98;108073;1277;71524;-80
2022/02/11 11:43:32;;;;;;;2.90;0.80;;;;;;;3.88;100.00;101414.94;108105;1277;72992;-81
2022/02/11 11:46:24;;;;;;;2.00;0.60;;;;;;;3.93;100.00;101416.51;108331;1277;61161;-80
2022/02/11 11:49:00;;;;;;;2.50;1.00;;;;;;;4.00;100.00;101417.41;108343;1276;61588;-79
2022/02/11 11:51:51;;;;;;;2.20;0.80;;;;;;;4.05;100.00;101428.94;108085;1277;75351;-82
2022/02/11 11:54:23;;;;;;;1.30;0.60;;;;;;;4.07;100.00;101438.37;108237;1276;71088;-81
2022/02/11 11:56:53;;;;;;;3.30;0.90;;;;;;;4.08;100.00;101436.86;108378;1276;73929;-82
2022/02/11 11:59:30;;;;;;;1.40;0.80;;;;;;;4.09;100.00;101442.48;108383;1276;59892;-81
2022/02/11 12:02:00;;;;;;;2.90;1.20;;;;;;;4.09;100.00;101459.56;108407;1276;60550;-80
2022/02/11 12:04:29;;;;;;;1.20;0.70;;;;;;;4.14;100.00;101461.92;108082;1277;75340;-81
2022/02/11 12:06:59;;;;;;;2.40;0.90;;;;;;;4.17;100.00;101467.83;108424;1276;71440;-81
2022/02/11 12:09:28;;;;;;;3.30;0.70;;;;;;;4.18;100.00;101476.10;108385;1276;72938;-80
2022/02/11 12:11:58;;;;;;;5.00;1.30;;;;;;;4.19;100.00;101480.23;108106;1277;62510;-80
2022/02/11 12:14:28;;;;;;;2.40;1.20;;;;;;;4.19;100.00;101479.70;108185;1277;59582;-80
2022/02/11 12:16:56;;;;;;;3.20;1.50;;;;;;;4.15;100.00;101489.48;108315;1277;74094;-80
2022/02/11 12:19:23;;;;;;;1.80;1.00;;;;;;;4.12;100.00;101509.48;108432;1277;71567;-80
2022/02/11 12:21:50;;;;;;;3.30;1.10;;;;;;;4.08;100.00;101510.48;108111;1277;74357;-81
2022/02/11 12:27:22;;;;;;;1.50;0.90;;;;;;;3.90;100.00;101517.91;108119;1277;59310;-80
2022/02/11 12:29:49;;;;;;;3.40;1.10;;;;;;;3.87;100.00;101529.14;108220;1270;75913;-79
2022/02/11 12:32:17;;;;;;;3.90;1.10;;;;;;;3.89;100.00;101534.59;108082;1279;70177;-80
2022/02/11 12:34:48;;;;;;;2.90;1.70;;;;;;;3.96;100.00;101542.49;108112;1279;74302;-78
2022/02/11 12:37:15;;;;;;;2.40;1.00;;;;;;;4.00;100.00;101554.11;108171;1278;61343;-78
2022/02/11 12:39:42;;;;;;;1.80;1.50;;;;;;;4.01;100.00;101561.88;108088;1279;61157;-79
2022/02/11 12:42:08;;;;;;;3.20;1.30;;;;;;;3.99;100.00;101581.96;108125;1279;73967;-81
2022/02/11 12:44:41;;;;;;;2.90;1.40;;;;;;;3.95;100.00;101586.52;108079;1279;71165;-81
2022/02/11 12:47:07;;;;;;;3.30;1.80;;;;;;;3.86;100.00;101605.10;108210;1277;74241;-79
2022/02/11 12:49:44;;;;;;;2.40;1.40;;;;;;;3.80;100.00;101600.35;108083;1279;61923;-78
2022/02/11 12:52:15;;;;;;;4.00;2.30;;;;;;;3.74;100.00;101608.27;108149;1277;60679;-79
2022/02/11 12:55:16;;;;;;;3.00;1.50;;;;;;;3.68;100.00;101617.06;108171;1277;74461;-79
2022/02/11 12:57:48;;;;;;;3.40;2.10;;;;;;;3.59;100.00;101638.30;108009;1279;72525;-79
2022/02/11 13:00:20;;;;;;;4.90;2.70;;;;;;;3.53;100.00;101638.77;108109;1277;73339;-78
2022/02/11 13:02:50;;;;;;;9.70;2.90;;;;;;;3.47;100.00;101639.89;108119;1278;61451;-80
2022/02/11 13:05:23;;;;;;;6.80;2.80;;;;;;;3.44;100.00;101657.23;108115;1277;60319;-81
2022/02/11 13:08:00;;;;;;;3.60;2.50;;;;;;;3.41;100.00;101667.58;107964;1279;74083;-81
2022/02/11 13:10:29;;;;;;;5.50;3.10;;;;;;;3.37;100.00;101683.92;108102;1277;71566;-78
2022/02/11 13:12:56;;;;;;;4.80;2.10;;;;;;;3.36;100.00;101692.89;108010;1278;73146;-78
2022/02/11 13:15:30;;;;;;;4.90;3.10;;;;;;;3.34;100.00;101703.52;108115;1277;61888;-81
2022/02/11 13:18:07;;;;;;;5.10;2.80;;;;;;;3.33;100.00;101713.59;108177;1279;60646;-80
2022/02/11 13:20:40;;;;;;;4.70;2.20;;;;;;;3.31;100.00;101719.79;108006;1279;72365;-82
2022/02/11 13:23:09;;;;;;;6.40;2.40;;;;;;;3.31;100.00;101729.97;107899;1277;73409;-80
2022/02/11 13:25:37;;;;;;;3.00;1.80;;;;;;;3.31;100.00;101745.17;107988;1279;73373;-83
2022/02/11 13:28:06;;;;;;;3.40;1.70;;;;;;;3.32;100.00;101748.06;107976;1279;60611;-81
2022/02/11 13:30:37;;;;;;;3.60;1.90;;;;;;;3.32;100.00;101754.73;108047;1277;61965;-79
2022/02/11 13:33:35;;;;;;;4.70;2.50;;;;;;;3.32;100.00;101760.85;108026;1277;74264;-79
2022/02/11 13:36:10;;;;;;;3.70;2.20;;;;;;;3.29;100.00;101769.41;108123;1277;71410;-78
2022/02/11 13:38:46;;;;;;;2.10;1.60;;;;;;;3.27;99.96;101781.63;108190;1277;72950;-78
2022/02/11 13:41:24;;;;;;;5.00;2.30;;;;;;;3.25;99.98;101785.42;108063;1277;60097;-81
2022/02/11 13:44:04;;;;;;;5.30;2.60;;;;;;;3.25;100.00;101793.08;108015;1279;61394;-81
2022/02/11 13:46:55;;;;;;;4.40;2.20;;;;;;;3.26;99.15;101798.95;108022;1279;76054;-81
2022/02/11 13:49:22;;;;;;;3.70;1.80;;;;;;;3.28;98.38;101807.43;108037;1279;72713;-81
2022/02/11 13:54:57;;;;;;;3.90;1.80;;;;;;;3.36;97.33;101824.75;108039;1277;61524;-81
2022/02/11 13:57:24;;;;;;;4.50;2.20;;;;;;;3.41;96.99;101833.87;108062;1278;60684;-81
2022/02/11 13:59:51;;;;;;;3.60;1.80;;;;;;;3.44;96.43;101844.52;108020;1279;74205;-79
2022/02/11 14:02:19;;;;;;;5.30;2.30;;;;;;;3.46;96.69;101850.45;107933;1277;71227;-79
2022/02/11 14:05:02;;;;;;;4.00;2.10;;;;;;;3.51;97.20;101858.23;107880;1279;72946;-78
2022/02/11 14:07:30;;;;;;;2.80;1.20;;;;;;;3.51;97.20;101859.27;108002;1279;62178;-80
2022/02/11 14:09:57;;;;;;;5.30;2.20;;;;;;;3.51;97.12;101868.69;108042;1278;60363;-79
2022/02/11 14:12:23;;;;;;;3.50;1.80;;;;;;;3.52;97.50;101878.58;107955;1279;58857;-79
2022/02/11 14:14:52;;;;;;;4.40;2.50;;;;;;;3.52;97.52;101892.80;108003;1278;71375;-78
2022/02/11 14:17:18;;;;;;;5.40;2.50;;;;;;;3.51;97.09;101897.20;108090;1277;73026;-79
2022/02/11 14:19:45;;;;;;;7.00;2.80;;;;;;;3.54;97.49;101894.40;108003;1278;61637;-79
2022/02/11 14:22:12;;;;;;;3.80;2.40;;;;;;;3.62;97.55;101899.13;108093;1277;61367;-79
2022/02/11 14:24:38;;;;;;;4.60;2.00;;;;;;;3.68;97.04;101907.30;108069;1279;73037;-80
2022/02/11 14:27:08;;;;;;;4.20;2.10;;;;;;;3.68;96.44;101907.09;107999;1279;71380;-79
2022/02/11 14:29:34;;;;;;;5.00;1.90;;;;;;;3.68;96.11;101914.27;108021;1279;72979;-79
2022/02/11 14:32:02;;;;;;;2.20;1.40;;;;;;;3.69;96.61;101913.01;107962;1277;62283;-79
2022/02/11 14:34:28;;;;;;;3.30;1.90;;;;;;;3.70;95.81;101929.92;107933;1279;61833;-79
2022/02/11 14:36:55;;;;;;;3.50;1.60;;;;;;;3.74;95.74;101933.71;108032;1279;59739;-79
2022/02/11 14:39:21;;;;;;;2.30;1.20;;;;;;;3.76;95.93;101938.63;108070;1279;58403;-79
2022/02/11 14:41:51;;;;;;;2.80;1.60;;;;;;;3.76;96.09;101947.71;107953;1279;58071;-79
2022/02/11 14:44:22;;;;;;;3.10;1.90;;;;;;;3.76;96.21;101963.29;108031;1279;61229;-80
2022/02/11 14:46:50;;;;;;;4.50;1.50;;;;;;;3.76;96.77;101965.05;107995;1279;60636;-80
2022/02/11 14:49:18;;;;;;;2.60;1.60;;;;;;;3.73;96.70;101969.11;107895;1279;74327;-81
2022/02/11 14:51:51;;;;;;;1.80;1.00;;;;;;;3.62;95.73;101990.26;107899;1279;72399;-80
2022/02/11 14:54:18;;;;;;;2.60;1.20;;;;;;;3.53;95.19;101993.63;108069;1278;73057;-79
2022/02/11 14:56:45;;;;;;;1.70;1.00;;;;;;;3.47;95.41;102006.92;108028;1279;62262;-79
2022/02/11 14:59:12;;;;;;;2.00;0.60;;;;;;;3.38;91.70;102011.69;108042;1278;61659;-79
2022/02/11 15:01:39;;;;;;;3.50;0.70;;;;;;;3.31;89.74;102021.27;108106;1278;75102;-79
2022/02/11 15:04:06;;;;;;;1.80;0.70;;;;;;;3.24;89.24;102029.86;107965;1279;72589;-78
2022/02/11 15:06:34;;;;;;;3.50;1.30;;;;;;;3.16;87.52;102030.70;107991;1279;71910;-80
2022/02/11 15:09:01;;;;;;;3.50;0.80;;;;;;;3.12;86.42;102037.42;108004;1279;61340;-78
2022/02/11 15:11:29;;;;;;;4.90;0.70;;;;;;;3.09;85.85;102039.54;107974;1279;60562;-78
2022/02/11 15:13:55;;;;;;;4.10;0.60;;;;;;;3.06;86.99;102051.92;107968;1279;74143;-79
2022/02/11 15:16:22;;;;;;;2.20;0.60;;;;;;;3.02;86.35;102063.02;107986;1279;70884;-78
2022/02/11 15:18:49;;;;;;;2.60;0.80;;;;;;;3.01;86.21;102072.17;108029;1278;58487;-79
2022/02/11 15:21:18;;;;;;;1.20;0.60;;;;;;;3.00;86.59;102077.65;108108;1278;61688;-82
2022/02/11 15:23:46;;;;;;;2.60;0.90;;;;;;;2.98;85.06;102077.74;108074;1279;62068;-81
2022/02/11 15:26:15;;;;;;;5.10;1.20;;;;;;;2.98;85.56;102083.38;108153;1277;74141;-80
2022/02/11 15:28:42;;;;;;;4.20;0.80;;;;;;;2.96;85.59;102092.02;107944;1279;72715;-80
2022/02/11 15:31:15;;;;;;;1.90;0.80;;;;;;;2.96;84.93;102097.12;108087;1279;71836;-80
2022/02/11 15:33:42;;;;;;;1.90;0.60;;;;;;;2.96;85.33;102103.39;107929;1279;62635;-80
2022/02/11 15:36:11;;;;;;;3.70;0.60;;;;;;;2.96;84.92;102114.75;108085;1279;59646;-81
2022/02/11 15:38:39;;;;;;;8.10;0.80;;;;;;;2.97;84.72;102116.44;107947;1279;74726;-81
2022/02/11 15:41:08;;;;;;;3.60;0.60;;;;;;;2.99;85.46;102117.92;108096;1279;71810;-79
2022/02/11 15:43:38;;;;;;;7.40;0.90;;;;;;;3.00;84.79;102125.38;108046;1278;74191;-78
2022/02/11 15:46:06;;;;;;;3.60;1.00;;;;;;;3.01;85.05;102124.06;107901;1279;61232;-78
2022/02/11 15:48:39;;;;;;;1.10;0.50;;;;;;;3.02;85.43;102127.36;107922;1278;60487;-78
2022/02/11 15:51:08;;;;;;;1.80;0.50;;;;;;;3.03;85.26;102139.52;107960;1279;74099;-78
2022/02/11 15:53:35;;;;;;;2.80;0.60;;;;;;;3.04;85.77;102142.26;107960;1279;71312;-78